createdAt,value
2022-12-19T00:00:43.767Z,33.33
2022-12-19T00:03:12.530Z,29.27
2022-12-19T00:05:40.144Z,35.17
2022-12-19T00:08:17.081Z,29.83
2022-12-19T00:10:44.726Z,29.13
2022-12-19T00:13:12.066Z,34.28
2022-12-19T00:15:40.559Z,29.48
2022-12-19T00:18:07.850Z,39.17
2022-12-19T00:20:36.563Z,28.25
2022-12-19T00:23:03.929Z,37.78
2022-12-19T00:25:31.220Z,28.02
2022-12-19T00:27:59.285Z,32.90
2022-12-19T00:30:26.876Z,30.60
2022-12-19T00:32:54.184Z,34.50
2022-12-19T00:35:21.472Z,34.00
2022-12-19T00:37:50.282Z,32.25
2022-12-19T00:40:17.816Z,30.67
2022-12-19T00:42:50.085Z,27.45
2022-12-19T00:45:20.573Z,25.30
2022-12-19T00:47:47.927Z,32.33
2022-12-19T00:50:15.487Z,28.38
2022-12-19T00:52:42.811Z,31.45
2022-12-19T00:55:16.439Z,35.92
2022-12-19T00:57:46.570Z,39.38
2022-12-19T01:00:14.576Z,30.77
2022-12-19T01:02:42.001Z,33.17
2022-12-19T01:05:09.775Z,28.10
2022-12-19T01:07:37.461Z,32.55
2022-12-19T01:10:05.508Z,34.25
2022-12-19T01:12:49.257Z,38.40
2022-12-19T01:15:17.575Z,31.88
2022-12-19T01:17:45.328Z,35.83
2022-12-19T01:20:13.137Z,33.80
2022-12-19T01:22:40.523Z,35.55
2022-12-19T01:25:08.242Z,34.30
2022-12-19T01:27:36.970Z,34.88
2022-12-19T01:30:04.934Z,22.52
2022-12-19T01:32:34.946Z,33.38
2022-12-19T01:35:02.245Z,35.13
2022-12-19T01:37:29.590Z,35.58
2022-12-19T01:39:56.931Z,21.75
2022-12-19T01:42:24.533Z,28.85
2022-12-19T01:45:06.747Z,31.88
2022-12-19T01:47:36.782Z,32.45
2022-12-19T01:50:04.636Z,38.13
2022-12-19T01:52:32.017Z,27.38
2022-12-19T01:54:59.436Z,32.67
2022-12-19T01:57:26.860Z,32.30
2022-12-19T01:59:56.467Z,25.52
2022-12-19T02:02:29.335Z,33.85
2022-12-19T02:04:56.793Z,31.08
2022-12-19T02:07:26.233Z,30.48
2022-12-19T02:09:56.985Z,28.63
2022-12-19T02:12:25.413Z,26.98
2022-12-19T02:14:53.236Z,29.27
2022-12-19T02:17:29.133Z,28.60
2022-12-19T02:20:26.254Z,35.33
2022-12-19T02:23:07.333Z,37.38
2022-12-19T02:25:49.425Z,22.40
2022-12-19T02:28:29.050Z,30.77
2022-12-19T02:31:05.729Z,25.35
2022-12-19T02:33:45.946Z,32.10
2022-12-19T02:36:16.902Z,29.17
2022-12-19T02:38:51.439Z,33.95
2022-12-19T02:43:48.667Z,28.17
2022-12-19T02:46:19.969Z,28.15
2022-12-19T02:48:47.877Z,33.92
2022-12-19T02:51:15.223Z,22.92
2022-12-19T02:53:43.194Z,26.42
2022-12-19T02:56:19.006Z,35.03
2022-12-19T02:58:52.832Z,30.45
2022-12-19T03:01:27.616Z,32.25
2022-12-19T03:04:00.858Z,25.90
2022-12-19T03:06:32.737Z,30.60
2022-12-19T03:09:03.075Z,28.52
2022-12-19T03:11:32.964Z,32.88
2022-12-19T03:14:02.979Z,28.65
2022-12-19T03:16:31.910Z,25.20
2022-12-19T03:18:59.364Z,27.58
2022-12-19T03:21:29.989Z,27.27
2022-12-19T03:23:58.262Z,29.48
2022-12-19T03:26:26.025Z,31.30
2022-12-19T03:28:55.238Z,31.08
2022-12-19T03:31:23.630Z,30.95
2022-12-19T03:33:55.524Z,33.35
2022-12-19T03:36:26.873Z,27.20
2022-12-19T03:38:54.887Z,27.70
2022-12-19T03:41:42.784Z,31.23
2022-12-19T03:44:10.318Z,27.33
2022-12-19T03:46:40.270Z,36.63
2022-12-19T03:49:09.166Z,23.90
2022-12-19T03:51:42.379Z,25.38
2022-12-19T03:54:11.920Z,28.33
2022-12-19T03:56:42.272Z,32.95
2022-12-19T03:59:12.126Z,31.50
2022-12-19T04:01:41.156Z,31.88
2022-12-19T04:04:13.154Z,34.53
2022-12-19T04:06:41.549Z,36.08
2022-12-19T04:09:09.389Z,41.03
2022-12-19T04:11:38.811Z,30.77
2022-12-19T04:14:08.299Z,41.85
2022-12-19T04:16:40.235Z,38.25
2022-12-19T04:19:10.066Z,33.67
2022-12-19T04:21:42.056Z,34.22
2022-12-19T04:24:12.376Z,26.30
2022-12-19T04:26:39.996Z,41.17
2022-12-19T04:29:08.094Z,33.47
2022-12-19T04:31:36.051Z,31.05
2022-12-19T04:34:03.517Z,36.85
2022-12-19T04:36:30.893Z,39.90
2022-12-19T04:38:59.579Z,40.72
2022-12-19T04:41:26.950Z,40.30
2022-12-19T04:43:54.225Z,35.33
2022-12-19T04:46:21.576Z,39.95
2022-12-19T04:48:48.981Z,39.78
2022-12-19T04:51:17.237Z,36.40
2022-12-19T04:53:44.982Z,41.47
2022-12-19T04:56:13.677Z,46.15
2022-12-19T04:58:41.053Z,35.53
2022-12-19T05:01:09.880Z,45.45
2022-12-19T05:03:37.709Z,40.97
2022-12-19T05:06:06.965Z,48.70
2022-12-19T05:08:37.363Z,48.10
2022-12-19T05:11:05.563Z,39.50
2022-12-19T05:13:34.440Z,45.55
2022-12-19T05:16:02.901Z,41.42
2022-12-19T05:18:30.812Z,38.90
2022-12-19T05:20:58.678Z,48.03
2022-12-19T05:23:26.126Z,36.95
2022-12-19T05:25:53.664Z,39.80
2022-12-19T05:28:21.064Z,39.65
2022-12-19T05:30:52.788Z,44.03
2022-12-19T05:33:20.218Z,33.00
2022-12-19T05:35:49.336Z,44.65
2022-12-19T05:38:16.674Z,32.30
2022-12-19T05:40:44.038Z,38.00
2022-12-19T05:43:11.425Z,34.17
2022-12-19T05:45:39.765Z,41.95
2022-12-19T05:48:08.901Z,39.97
2022-12-19T05:50:36.967Z,39.20
2022-12-19T05:53:04.359Z,41.90
2022-12-19T05:55:31.703Z,38.72
2022-12-19T05:57:59.008Z,37.83
2022-12-19T06:00:26.494Z,44.35
2022-12-19T06:02:54.653Z,33.72
2022-12-19T06:05:23.562Z,42.15
2022-12-19T06:07:51.029Z,38.20
2022-12-19T06:10:18.338Z,37.85
2022-12-19T06:12:45.705Z,37.70
2022-12-19T06:15:13.532Z,40.78
2022-12-19T06:17:40.825Z,40.17
2022-12-19T06:20:08.496Z,44.83
2022-12-19T06:22:37.525Z,34.40
2022-12-19T06:25:05.276Z,42.65
2022-12-19T06:27:32.619Z,38.50
2022-12-19T06:29:59.970Z,37.45
2022-12-19T06:32:27.362Z,35.33
2022-12-19T06:35:04.114Z,40.70
2022-12-19T06:37:32.016Z,44.63
2022-12-19T06:40:00.731Z,40.65
2022-12-19T06:42:27.114Z,42.65
2022-12-19T06:44:55.999Z,40.92
2022-12-19T06:47:24.235Z,38.97
2022-12-19T06:49:51.545Z,45.53
2022-12-19T06:52:18.967Z,43.25
2022-12-19T06:54:46.342Z,44.88
2022-12-19T06:57:14.988Z,44.40
2022-12-19T06:59:42.413Z,41.47
2022-12-19T07:02:14.776Z,38.42
2022-12-19T07:04:44.482Z,40.58
2022-12-19T07:07:11.781Z,33.50
2022-12-19T07:09:39.123Z,43.33
2022-12-19T07:12:06.599Z,39.70
2022-12-19T07:14:35.304Z,37.72
2022-12-19T07:17:03.496Z,34.50
2022-12-19T07:19:31.636Z,36.90
2022-12-19T07:22:00.182Z,36.50
2022-12-19T07:24:27.601Z,31.90
2022-12-19T07:26:54.951Z,31.63
2022-12-19T07:29:22.522Z,37.38
2022-12-19T07:31:51.221Z,33.75
2022-12-19T07:34:18.846Z,41.35
2022-12-19T07:36:46.158Z,33.53
2022-12-19T07:39:13.564Z,45.15
2022-12-19T07:41:40.909Z,38.15
2022-12-19T07:44:08.497Z,38.22
2022-12-19T07:46:35.809Z,38.17
2022-12-19T07:49:04.483Z,42.22
2022-12-19T07:51:31.796Z,42.53
2022-12-19T07:53:59.206Z,41.67
2022-12-19T07:56:27.338Z,41.58
2022-12-19T07:58:55.009Z,39.65
2022-12-19T08:01:22.652Z,39.65
2022-12-19T08:03:50.128Z,42.08
2022-12-19T08:06:18.788Z,44.45
2022-12-19T08:08:46.081Z,34.10
2022-12-19T08:11:14.160Z,36.40
2022-12-19T08:13:46.407Z,38.38
2022-12-19T08:16:14.265Z,40.20
2022-12-19T08:18:41.615Z,43.22
2022-12-19T08:21:09.335Z,38.20
2022-12-19T08:23:38.586Z,45.08
2022-12-19T08:26:07.006Z,42.88
2022-12-19T08:28:35.403Z,40.40
2022-12-19T08:31:06.619Z,42.08
2022-12-19T08:33:34.026Z,40.10
2022-12-19T08:36:04.418Z,43.50
2022-12-19T08:38:31.798Z,41.33
2022-12-19T08:41:00.431Z,43.45
2022-12-19T08:43:28.105Z,44.83
2022-12-19T08:45:55.742Z,33.45
2022-12-19T08:48:23.766Z,37.22
2022-12-19T08:50:51.697Z,41.42
2022-12-19T08:53:22.815Z,40.05
2022-12-19T08:55:55.308Z,38.42
2022-12-19T08:58:24.137Z,41.88
2022-12-19T09:00:57.528Z,38.72
2022-12-19T09:03:32.937Z,33.92
2022-12-19T09:06:18.611Z,45.70
2022-12-19T09:08:46.903Z,42.42
2022-12-19T09:11:15.404Z,45.67
2022-12-19T09:13:44.555Z,36.03
2022-12-19T09:16:12.872Z,48.88
2022-12-19T09:18:45.178Z,45.70
2022-12-19T09:21:15.491Z,33.75
2022-12-19T09:23:43.329Z,43.63
2022-12-19T09:26:13.609Z,42.00
2022-12-19T09:28:42.089Z,42.08
2022-12-19T09:31:12.570Z,39.92
2022-12-19T09:33:43.579Z,35.70
2022-12-19T09:36:13.225Z,40.28
2022-12-19T09:38:40.570Z,43.67
2022-12-19T09:41:15.373Z,37.08
2022-12-19T09:43:51.893Z,40.50
2022-12-19T09:46:21.121Z,36.60
2022-12-19T09:48:54.499Z,39.47
2022-12-19T09:51:29.001Z,39.92
2022-12-19T09:54:00.013Z,44.47
2022-12-19T09:56:29.436Z,30.80
2022-12-19T09:59:01.795Z,38.10
2022-12-19T10:01:33.546Z,37.97
2022-12-19T10:04:02.918Z,36.17
2022-12-19T10:07:21.141Z,44.95
2022-12-19T10:10:37.564Z,41.63
2022-12-19T10:12:47.892Z,38.92
2022-12-19T10:15:04.017Z,41.55
2022-12-19T10:17:37.780Z,38.60
2022-12-19T10:20:13.739Z,34.85
2022-12-19T10:22:44.645Z,41.72
2022-12-19T10:25:16.689Z,34.05
2022-12-19T10:27:59.351Z,34.67
2022-12-19T10:30:27.818Z,37.70
2022-12-19T10:33:03.808Z,36.10
2022-12-19T10:35:32.850Z,37.00
2022-12-19T10:38:08.427Z,35.08
2022-12-19T10:40:38.430Z,32.92
2022-12-19T10:43:17.065Z,31.85
2022-12-19T10:45:52.286Z,33.40
2022-12-19T10:48:22.517Z,34.03
2022-12-19T10:50:58.771Z,33.50
2022-12-19T10:53:34.024Z,34.53
2022-12-19T10:56:02.494Z,32.47
2022-12-19T10:58:33.705Z,37.72
2022-12-19T11:01:05.003Z,35.00
2022-12-19T11:03:34.534Z,36.38
2022-12-19T11:06:03.442Z,34.45
2022-12-19T11:08:31.711Z,33.17
2022-12-19T11:13:10.937Z,31.70
2022-12-19T11:18:45.644Z,34.20
2022-12-19T11:22:19.873Z,32.67
2022-12-19T11:29:18.922Z,31.25
2022-12-19T11:29:25.824Z,29.77
2022-12-19T11:29:54.949Z,31.60
2022-12-19T11:30:36.186Z,28.10
2022-12-19T11:33:45.816Z,31.52
2022-12-19T11:36:27.333Z,27.60
2022-12-19T11:38:55.025Z,30.40
2022-12-19T11:41:30.386Z,27.95
2022-12-19T11:44:01.921Z,29.13
2022-12-19T11:46:34.072Z,26.58
2022-12-19T11:49:03.710Z,30.10
2022-12-19T11:51:34.459Z,29.08
2022-12-19T11:54:07.086Z,30.08
2022-12-19T11:56:34.583Z,29.40
2022-12-19T11:59:03.461Z,29.38
2022-12-19T12:01:49.720Z,31.67
2022-12-19T12:04:27.070Z,26.83
2022-12-19T12:06:56.853Z,30.85
2022-12-19T12:14:06.242Z,26.67
2022-12-19T12:21:05.474Z,28.50
2022-12-19T12:27:19.993Z,30.85
2022-12-19T12:31:19.172Z,23.75
2022-12-19T12:31:32.252Z,25.05
2022-12-19T12:31:43.268Z,28.65
2022-12-19T12:31:54.110Z,28.73
2022-12-19T12:32:00.973Z,23.73
2022-12-19T12:35:22.464Z,27.35
2022-12-19T12:38:24.362Z,24.67
2022-12-19T12:40:59.394Z,25.83
2022-12-19T12:43:37.021Z,28.88
2022-12-19T12:46:05.190Z,26.70
2022-12-19T12:48:35.184Z,26.35
2022-12-19T12:51:02.649Z,21.58
2022-12-19T12:53:33.605Z,29.77
2022-12-19T12:56:03.017Z,29.05
2022-12-19T12:58:45.412Z,26.38
2022-12-19T13:01:15.940Z,25.27
2022-12-19T13:03:43.584Z,24.05
2022-12-19T13:06:25.183Z,23.63
2022-12-19T13:08:53.584Z,25.33
2022-12-19T13:11:54.629Z,19.73
2022-12-19T13:14:40.637Z,24.65
2022-12-19T13:17:08.470Z,25.27
2022-12-19T13:19:36.873Z,24.60
2022-12-19T13:22:15.592Z,24.73
2022-12-19T13:24:44.357Z,24.95
2022-12-19T13:27:26.569Z,19.73
2022-12-19T13:30:03.550Z,24.67
2022-12-19T13:32:33.795Z,22.90
2022-12-19T13:35:51.029Z,26.90
2022-12-19T13:39:55.641Z,19.73
2022-12-19T13:40:52.894Z,24.23
2022-12-19T13:43:39.869Z,17.55
2022-12-19T13:46:21.819Z,20.17
2022-12-19T13:48:51.013Z,19.60
2022-12-19T13:51:18.380Z,21.30
2022-12-19T13:53:45.959Z,21.63
2022-12-19T13:56:14.720Z,22.23
2022-12-19T13:58:47.657Z,22.75
2022-12-19T14:01:21.407Z,26.00
2022-12-19T14:03:50.124Z,25.92
2022-12-19T14:06:20.532Z,23.52
2022-12-19T14:09:25.096Z,26.88
2022-12-19T14:13:39.462Z,23.98
2022-12-19T14:14:43.818Z,22.55
2022-12-19T14:17:15.173Z,20.42
2022-12-19T14:19:43.724Z,25.75
2022-12-19T14:22:20.752Z,25.23
2022-12-19T14:25:27.127Z,19.60
2022-12-19T14:28:22.205Z,22.13
2022-12-19T14:30:35.955Z,21.67
2022-12-19T14:33:53.579Z,26.75
2022-12-19T14:36:12.225Z,24.58
2022-12-19T14:39:23.052Z,23.23
2022-12-19T14:42:00.626Z,26.20
2022-12-19T14:52:11.613Z,25.83
2022-12-19T14:53:51.974Z,24.45
2022-12-19T14:54:16.637Z,22.98
2022-12-19T14:54:40.195Z,18.50
2022-12-19T14:58:57.139Z,23.55
2022-12-19T15:01:25.908Z,20.90
2022-12-19T15:04:51.241Z,18.75
2022-12-19T15:07:06.900Z,14.80
2022-12-19T15:11:08.382Z,19.92
2022-12-19T15:14:47.323Z,17.95
2022-12-19T15:15:38.484Z,16.42
2022-12-19T15:18:17.714Z,14.60
2022-12-19T15:20:44.990Z,17.05
2022-12-19T15:23:19.824Z,17.65
2022-12-19T15:26:06.612Z,13.63
2022-12-19T15:28:38.930Z,17.02
2022-12-19T15:31:07.815Z,13.13
2022-12-19T15:33:35.203Z,13.38
2022-12-19T15:36:02.604Z,13.63
2022-12-19T15:38:31.236Z,13.70
2022-12-19T15:40:58.579Z,12.90
2022-12-19T15:44:02.050Z,15.02
2022-12-19T15:46:13.632Z,11.50
2022-12-19T15:48:43.533Z,13.15
2022-12-19T15:51:12.430Z,13.55
2022-12-19T15:53:41.619Z,13.15
2022-12-19T15:56:14.985Z,11.50
2022-12-19T15:58:42.282Z,14.13
2022-12-19T16:01:09.574Z,13.35
2022-12-19T16:03:37.176Z,9.43
2022-12-19T16:06:04.812Z,12.25
2022-12-19T16:08:32.197Z,12.32
2022-12-19T16:11:02.224Z,13.35
2022-12-19T16:13:30.692Z,13.40
2022-12-19T16:15:58.913Z,11.75
2022-12-19T16:18:26.610Z,11.95
2022-12-19T16:20:54.095Z,14.55
2022-12-19T16:23:22.221Z,13.20
2022-12-19T16:25:51.230Z,13.50
2022-12-19T16:28:21.191Z,12.43
2022-12-19T16:30:50.308Z,14.40
2022-12-19T16:33:20.035Z,14.63
2022-12-19T16:36:04.770Z,12.98
2022-12-19T16:38:33.852Z,14.13
2022-12-19T16:41:01.720Z,14.90
2022-12-19T16:43:31.738Z,13.82
2022-12-19T16:46:01.411Z,14.35
2022-12-19T16:48:30.503Z,14.57
2022-12-19T16:50:57.914Z,11.65
2022-12-19T16:53:25.280Z,14.43
2022-12-19T16:55:52.880Z,15.07
2022-12-19T16:58:21.238Z,14.10
2022-12-19T17:00:51.128Z,14.98
2022-12-19T17:03:26.671Z,15.73
2022-12-19T17:05:54.238Z,16.83
2022-12-19T17:08:21.592Z,16.83
2022-12-19T17:10:49.326Z,17.60
2022-12-19T17:13:18.411Z,16.10
2022-12-19T17:15:49.818Z,18.48
2022-12-19T17:18:25.802Z,16.15
2022-12-19T17:20:53.136Z,16.77
2022-12-19T17:23:21.818Z,18.05
2022-12-19T17:25:49.209Z,18.38
2022-12-19T17:28:17.102Z,16.52
2022-12-19T17:30:48.293Z,17.05
2022-12-19T17:33:16.622Z,15.40
2022-12-19T17:35:45.422Z,15.75
2022-12-19T17:38:14.045Z,14.88
2022-12-19T17:40:41.602Z,14.85
2022-12-19T17:43:08.954Z,15.35
2022-12-19T17:45:36.301Z,14.73
2022-12-19T17:48:05.323Z,15.90
2022-12-19T17:50:34.354Z,17.45
2022-12-19T17:53:03.066Z,16.80
2022-12-19T17:55:31.288Z,14.20
2022-12-19T17:57:59.216Z,12.60
2022-12-19T18:00:30.915Z,11.00
2022-12-19T18:03:00.326Z,8.38
2022-12-19T18:05:29.054Z,6.80
2022-12-19T18:07:56.388Z,5.32
2022-12-19T18:10:26.606Z,5.28
2022-12-19T18:12:54.322Z,5.55
2022-12-19T18:15:22.352Z,5.30
2022-12-19T18:17:51.118Z,5.85
2022-12-19T18:20:24.956Z,6.60
2022-12-19T18:22:57.630Z,6.25
2022-12-19T18:25:27.292Z,6.78
2022-12-19T18:27:55.310Z,5.72
2022-12-19T18:30:23.771Z,7.63
2022-12-19T18:32:52.544Z,8.52
2022-12-19T18:35:21.295Z,9.45
2022-12-19T18:37:49.862Z,10.65
2022-12-19T18:40:22.290Z,11.43
2022-12-19T18:42:54.760Z,12.48
2022-12-19T18:45:23.007Z,14.32
2022-12-19T18:47:57.891Z,14.60
2022-12-19T18:52:53.620Z,13.70
2022-12-19T18:55:22.295Z,15.75
2022-12-19T18:57:49.975Z,18.65
2022-12-19T19:00:19.639Z,17.48
2022-12-19T19:02:49.512Z,14.73
2022-12-19T19:05:18.497Z,14.40
2022-12-19T19:07:46.280Z,14.55
2022-12-19T19:10:21.383Z,15.80
2022-12-19T19:12:50.376Z,16.52
2022-12-19T19:15:20.292Z,15.38
2022-12-19T19:17:52.896Z,13.73
2022-12-19T19:20:20.250Z,15.82
2022-12-19T19:22:47.815Z,13.35
2022-12-19T19:25:15.170Z,14.50
2022-12-19T19:27:42.563Z,11.45
2022-12-19T19:30:11.069Z,8.43
2022-12-19T19:32:41.203Z,7.07
2022-12-19T19:35:09.824Z,6.03
2022-12-19T19:37:37.468Z,6.32
2022-12-19T19:40:05.273Z,6.00
2022-12-19T19:42:32.557Z,4.68
2022-12-19T19:44:59.899Z,7.90
2022-12-19T19:47:28.184Z,8.60
2022-12-19T19:49:57.262Z,13.68
2022-12-19T19:52:24.569Z,6.15
2022-12-19T19:54:51.958Z,4.22
2022-12-19T19:57:19.356Z,3.88
2022-12-19T19:59:46.723Z,3.50
2022-12-19T20:02:16.753Z,3.10
2022-12-19T20:04:45.582Z,5.68
2022-12-19T20:07:15.319Z,4.30
2022-12-19T20:09:42.645Z,3.40
2022-12-19T20:12:09.964Z,4.35
2022-12-19T20:14:37.311Z,3.33
2022-12-19T20:17:04.605Z,3.15
2022-12-19T20:19:31.917Z,4.05
2022-12-19T20:22:00.601Z,4.10
2022-12-19T20:24:29.413Z,3.45
2022-12-19T20:26:57.193Z,3.17
2022-12-19T20:29:24.629Z,2.88
2022-12-19T20:31:52.070Z,3.70
2022-12-19T20:34:20.714Z,2.90
2022-12-19T20:36:48.036Z,3.17
2022-12-19T20:39:16.147Z,2.97
2022-12-19T20:41:44.775Z,2.78
2022-12-19T20:44:12.138Z,2.90
2022-12-19T20:46:39.489Z,2.50
2022-12-19T20:49:06.832Z,2.95
2022-12-19T20:51:34.199Z,2.08
2022-12-19T20:54:01.554Z,2.55
2022-12-19T20:56:28.867Z,2.35
2022-12-19T20:58:57.591Z,2.70
2022-12-19T21:01:25.568Z,2.30
2022-12-19T21:03:53.478Z,2.10
2022-12-19T21:06:21.588Z,2.33
2022-12-19T21:08:50.351Z,3.10
2022-12-19T21:11:17.708Z,2.78
2022-12-19T21:13:45.325Z,2.60
2022-12-19T21:16:15.469Z,2.45
2022-12-19T21:18:44.694Z,2.10
2022-12-19T21:21:13.058Z,2.42
2022-12-19T21:23:40.602Z,3.28
2022-12-19T21:26:07.967Z,3.38
2022-12-19T21:28:35.303Z,1.98
2022-12-19T21:31:04.192Z,1.95
2022-12-19T21:33:33.026Z,2.50
2022-12-19T21:36:05.589Z,2.10
2022-12-19T21:38:33.043Z,2.20
2022-12-19T21:41:02.563Z,3.17
2022-12-19T21:43:30.975Z,2.40
2022-12-19T21:46:04.550Z,4.57
2022-12-19T21:48:37.065Z,2.78
2022-12-19T21:51:04.581Z,2.47
2022-12-19T21:53:31.932Z,2.38
2022-12-19T21:56:02.878Z,2.50
2022-12-19T21:58:30.163Z,2.47
2022-12-19T22:01:07.885Z,2.58
2022-12-19T22:03:37.425Z,2.30
2022-12-19T22:06:05.475Z,2.30
2022-12-19T22:08:32.835Z,1.90
2022-12-19T22:11:00.123Z,1.77
2022-12-19T22:13:27.427Z,2.00
2022-12-19T22:15:54.870Z,2.60
2022-12-19T22:18:22.281Z,2.40
2022-12-19T22:20:50.926Z,2.90
2022-12-19T22:23:18.205Z,2.08
2022-12-19T22:25:45.732Z,2.10
2022-12-19T22:28:13.299Z,3.15
2022-12-19T22:30:40.635Z,2.38
2022-12-19T22:33:07.981Z,1.90
2022-12-19T22:35:35.443Z,3.63
2022-12-19T22:38:04.180Z,1.42
2022-12-19T22:40:32.983Z,3.08
2022-12-19T22:43:00.329Z,3.17
2022-12-19T22:45:30.481Z,2.75
2022-12-19T22:47:57.873Z,2.17
2022-12-19T22:50:25.171Z,2.08
2022-12-19T22:52:52.529Z,1.90
2022-12-19T22:55:21.153Z,1.45
2022-12-19T22:57:48.440Z,1.77
2022-12-19T23:00:15.933Z,2.10
2022-12-19T23:02:43.874Z,1.40
2022-12-19T23:05:11.374Z,1.30
2022-12-19T23:07:38.813Z,1.50
2022-12-19T23:10:06.804Z,1.60
2022-12-19T23:12:35.661Z,2.10
2022-12-19T23:15:03.102Z,1.90
2022-12-19T23:17:30.692Z,1.15
2022-12-19T23:19:57.962Z,1.50
2022-12-19T23:22:25.312Z,2.10
2022-12-19T23:24:52.622Z,1.63
2022-12-19T23:27:19.935Z,1.58
2022-12-19T23:29:49.420Z,1.60
2022-12-19T23:32:16.827Z,1.70
2022-12-19T23:34:44.179Z,1.90
2022-12-19T23:37:12.446Z,1.75
2022-12-19T23:39:42.694Z,1.40
2022-12-19T23:42:10.064Z,1.50
2022-12-19T23:44:37.504Z,2.00
2022-12-19T23:47:06.242Z,1.65
2022-12-19T23:49:33.669Z,1.90
2022-12-19T23:52:01.053Z,1.95
2022-12-19T23:54:28.428Z,1.55
2022-12-19T23:56:55.713Z,1.48
2022-12-19T23:59:23.095Z,1.67
